Time;durP1;ratioP1;P1;durP2;ratioP2;P2;SDS_P1;SDS_P2;PMS_P1;PMS_P2;Temp;Humidity;BMP_temperature;BMP_pressure;BME280_temperature;BME280_humidity;BME280_pressure;Samples;Min_cycle;Max_cycle;Signal;HPM_P1;HPM_P2
2021/05/14 00:01:51;;;;;;;4.95;1.70;;;11.70;99.90;;;;;;5074321;28;20033;-65
2021/05/14 00:04:19;;;;;;;4.30;1.50;;;11.70;99.90;;;;;;5073982;28;20378;-65
2021/05/14 00:06:46;;;;;;;3.05;1.48;;;11.60;99.90;;;;;;5073846;28;20041;-65
2021/05/14 00:09:13;;;;;;;4.82;1.70;;;11.40;99.90;;;;;;5074072;28;20472;-65
2021/05/14 00:11:39;;;;;;;2.88;1.63;;;11.30;99.90;;;;;;5073869;28;20032;-65
2021/05/14 00:14:05;;;;;;;2.65;1.77;;;11.10;99.90;;;;;;5074135;28;20032;-65
2021/05/14 00:16:31;;;;;;;3.25;1.77;;;11.00;99.90;;;;;;5073773;28;20085;-65
2021/05/14 00:18:57;;;;;;;3.53;1.98;;;10.90;99.90;;;;;;5073550;28;20052;-65
2021/05/14 00:21:22;;;;;;;2.97;1.50;;;10.80;99.90;;;;;;5074040;28;20472;-65
2021/05/14 00:23:48;;;;;;;2.65;1.95;;;10.70;99.90;;;;;;5073632;28;20036;-64
2021/05/14 00:26:14;;;;;;;2.60;1.48;;;10.80;99.90;;;;;;5073665;28;20162;-65
2021/05/14 00:28:40;;;;;;;4.13;2.15;;;10.70;99.90;;;;;;5073523;28;20033;-65
2021/05/14 00:31:06;;;;;;;2.83;1.75;;;10.80;99.90;;;;;;5073814;28;20067;-65
2021/05/14 00:33:31;;;;;;;3.20;1.60;;;10.90;99.90;;;;;;5073534;28;20037;-65
2021/05/14 00:35:57;;;;;;;3.60;1.42;;;10.90;99.90;;;;;;5073847;28;20075;-65
2021/05/14 00:38:23;;;;;;;2.50;1.10;;;11.00;99.90;;;;;;5072433;28;20068;-65
2021/05/14 00:40:49;;;;;;;1.98;1.00;;;11.00;99.90;;;;;;5072665;28;20032;-65
2021/05/14 00:43:14;;;;;;;4.03;1.20;;;11.00;99.90;;;;;;5073740;28;20484;-65
2021/05/14 00:45:40;;;;;;;1.85;1.27;;;10.80;99.90;;;;;;5073456;28;20566;-64
2021/05/14 00:48:06;;;;;;;4.03;1.52;;;10.70;99.90;;;;;;5073478;28;20093;-65
2021/05/14 00:50:32;;;;;;;3.05;1.42;;;10.60;99.90;;;;;;5072940;28;20564;-64
2021/05/14 00:52:58;;;;;;;3.05;1.38;;;10.50;99.90;;;;;;5073382;28;20119;-65
2021/05/14 00:55:24;;;;;;;2.95;1.33;;;10.40;99.90;;;;;;5072107;28;20040;-65
2021/05/14 00:57:50;;;;;;;3.55;1.50;;;10.30;99.90;;;;;;5073163;28;20028;-65
2021/05/14 01:00:16;;;;;;;2.35;1.33;;;10.20;99.90;;;;;;5073252;28;20028;-65
2021/05/14 01:02:42;;;;;;;3.25;1.80;;;10.20;99.90;;;;;;5072731;28;20033;-65
2021/05/14 01:05:09;;;;;;;3.05;1.50;;;10.10;99.90;;;;;;5072679;28;20120;-62
2021/05/14 01:07:34;;;;;;;3.60;1.48;;;10.10;99.90;;;;;;5072631;28;20071;-64
2021/05/14 01:10:01;;;;;;;2.65;1.33;;;10.00;99.90;;;;;;5073043;28;20484;-64
2021/05/14 01:12:26;;;;;;;2.10;1.30;;;10.00;99.90;;;;;;5072921;28;20043;-64
2021/05/14 01:14:52;;;;;;;4.80;1.90;;;9.90;99.90;;;;;;5072619;28;20256;-64
2021/05/14 01:17:18;;;;;;;3.70;1.98;;;9.90;99.90;;;;;;5072872;28;20079;-64
2021/05/14 01:19:44;;;;;;;5.95;2.10;;;9.80;99.90;;;;;;5072231;28;20059;-64
2021/05/14 01:22:09;;;;;;;3.40;1.83;;;9.70;99.90;;;;;;5072863;28;20021;-64
2021/05/14 01:24:35;;;;;;;3.38;1.90;;;9.60;99.90;;;;;;5072717;28;20456;-64
2021/05/14 01:27:02;;;;;;;5.65;2.42;;;9.60;99.90;;;;;;5072791;28;20052;-63
2021/05/14 01:29:28;;;;;;;3.95;2.00;;;9.60;99.90;;;;;;5072446;28;20024;-64
2021/05/14 01:31:54;;;;;;;5.10;2.05;;;9.50;99.90;;;;;;5072244;28;20028;-64
2021/05/14 01:34:20;;;;;;;5.50;2.58;;;9.50;99.90;;;;;;5072604;28;20477;-64
2021/05/14 01:36:46;;;;;;;3.75;2.13;;;9.40;99.90;;;;;;5072527;28;20020;-64
2021/05/14 01:39:17;;;;;;;5.50;2.25;;;9.40;99.90;;;;;;5071424;28;20032;-64
2021/05/14 01:41:43;;;;;;;3.83;2.40;;;9.40;99.90;;;;;;5072660;28;20047;-64
2021/05/14 01:44:09;;;;;;;4.50;2.47;;;9.30;99.90;;;;;;5072638;28;20480;-64
2021/05/14 01:46:35;;;;;;;6.90;2.40;;;9.30;99.90;;;;;;5072242;28;20024;-64
2021/05/14 01:49:01;;;;;;;4.40;2.60;;;9.20;99.90;;;;;;5072449;28;20086;-64
2021/05/14 01:51:27;;;;;;;3.47;2.40;;;9.20;99.90;;;;;;5072471;28;20028;-64
2021/05/14 01:53:54;;;;;;;5.30;2.35;;;9.20;99.90;;;;;;5069893;28;20511;-64
2021/05/14 01:56:20;;;;;;;3.60;2.40;;;9.30;99.90;;;;;;5072317;28;20052;-65
2021/05/14 01:58:50;;;;;;;4.80;2.80;;;9.20;99.90;;;;;;5072229;28;20055;-64
2021/05/14 02:01:17;;;;;;;3.90;2.53;;;9.30;99.90;;;;;;5072512;28;20021;-64
2021/05/14 02:03:43;;;;;;;3.47;2.40;;;9.20;99.90;;;;;;5072224;28;20038;-64
2021/05/14 02:06:08;;;;;;;4.13;2.10;;;9.20;99.90;;;;;;5072440;28;20123;-64
2021/05/14 02:08:35;;;;;;;3.17;2.10;;;9.10;99.90;;;;;;5072146;28;20033;-65
2021/05/14 02:11:03;;;;;;;3.58;2.10;;;9.10;99.90;;;;;;5072063;28;20059;-65
2021/05/14 02:13:28;;;;;;;3.22;2.10;;;9.20;99.90;;;;;;5072223;28;20048;-65
2021/05/14 02:15:54;;;;;;;3.50;2.08;;;9.20;99.90;;;;;;5072249;28;20033;-65
2021/05/14 02:18:20;;;;;;;3.30;1.90;;;9.20;99.90;;;;;;5071894;28;20045;-64
2021/05/14 02:20:46;;;;;;;4.10;1.98;;;9.20;99.90;;;;;;5072195;28;20032;-64
2021/05/14 02:23:12;;;;;;;4.70;1.90;;;9.20;99.90;;;;;;5072163;28;20036;-65
2021/05/14 02:25:38;;;;;;;4.30;1.88;;;9.30;99.90;;;;;;5070811;28;20520;-65
2021/05/14 02:28:06;;;;;;;3.55;1.58;;;9.20;99.90;;;;;;5071902;28;20037;-65
2021/05/14 02:30:32;;;;;;;5.15;2.00;;;9.30;99.90;;;;;;5071748;28;20044;-64
2021/05/14 02:32:58;;;;;;;2.45;1.63;;;9.30;99.90;;;;;;5071548;28;20419;-64
2021/05/14 02:35:24;;;;;;;3.20;1.98;;;9.30;99.90;;;;;;5071665;28;20366;-64
2021/05/14 02:37:50;;;;;;;3.67;1.70;;;9.30;99.90;;;;;;5071879;28;20043;-65
2021/05/14 02:40:16;;;;;;;3.47;1.80;;;9.40;99.90;;;;;;5071690;28;20033;-64
2021/05/14 02:42:42;;;;;;;4.10;2.10;;;9.40;99.90;;;;;;5071639;28;20108;-65
2021/05/14 02:45:09;;;;;;;4.05;1.80;;;9.40;99.90;;;;;;5071859;28;20033;-65
2021/05/14 02:47:35;;;;;;;4.30;2.35;;;9.50;99.90;;;;;;5071959;28;20036;-65
2021/05/14 02:50:01;;;;;;;5.45;2.47;;;9.50;99.90;;;;;;5071556;28;20027;-65
2021/05/14 02:52:27;;;;;;;9.57;1.88;;;9.50;99.90;;;;;;5071787;28;20035;-65
2021/05/14 02:54:53;;;;;;;5.65;1.77;;;9.50;99.90;;;;;;5071754;28;20028;-64
2021/05/14 02:57:21;;;;;;;5.13;2.08;;;9.50;99.90;;;;;;5071938;28;20074;-65
2021/05/14 02:59:47;;;;;;;2.95;1.77;;;9.60;99.90;;;;;;5071461;28;20388;-65
2021/05/14 03:02:12;;;;;;;2.55;1.65;;;9.50;99.90;;;;;;5071994;28;20111;-64
2021/05/14 03:04:38;;;;;;;4.22;2.22;;;9.60;99.90;;;;;;5073526;28;20024;-64
2021/05/14 03:07:04;;;;;;;3.80;2.47;;;9.60;99.90;;;;;;5075517;28;20035;-64
2021/05/14 03:09:30;;;;;;;5.47;2.15;;;9.60;99.90;;;;;;5075575;28;20024;-64
2021/05/14 03:11:56;;;;;;;4.75;2.05;;;9.60;99.90;;;;;;5074919;28;20040;-64
2021/05/14 03:14:21;;;;;;;3.92;2.28;;;9.60;99.90;;;;;;5075411;28;20039;-65
2021/05/14 03:16:47;;;;;;;3.95;2.00;;;9.60;99.90;;;;;;5075224;28;20044;-64
2021/05/14 03:19:13;;;;;;;3.75;2.17;;;9.60;99.90;;;;;;5074570;28;20056;-64
2021/05/14 03:21:39;;;;;;;5.97;1.92;;;9.60;99.90;;;;;;5074904;28;20102;-64
2021/05/14 03:24:05;;;;;;;3.92;2.13;;;9.60;99.90;;;;;;5074933;28;20034;-64
2021/05/14 03:26:31;;;;;;;4.10;2.15;;;9.60;99.90;;;;;;5075130;28;20040;-65
2021/05/14 03:28:56;;;;;;;4.57;2.35;;;9.60;99.90;;;;;;5074973;28;20384;-65
2021/05/14 03:31:22;;;;;;;4.68;2.35;;;9.60;99.90;;;;;;5075024;28;20103;-65
2021/05/14 03:33:48;;;;;;;3.88;2.78;;;9.60;99.90;;;;;;5074812;28;20025;-65
2021/05/14 03:36:19;;;;;;;3.67;2.22;;;9.60;99.90;;;;;;5074805;28;20043;-64
2021/05/14 03:38:45;;;;;;;3.90;2.33;;;9.60;99.90;;;;;;5074671;28;20044;-64
2021/05/14 03:43:55;;;;;;;3.70;1.90;;;9.70;99.90;;;;;;5073663;28;20049;-63
2021/05/14 03:46:21;;;;;;;4.38;2.38;;;9.70;99.90;;;;;;5074035;28;20029;-71
2021/05/14 03:48:47;;;;;;;3.10;1.92;;;9.70;99.90;;;;;;5088944;28;20056;-71
2021/05/14 03:51:13;;;;;;;3.15;1.83;;;9.70;99.90;;;;;;5095009;28;20059;-71
2021/05/14 03:53:39;;;;;;;3.30;1.60;;;9.60;99.90;;;;;;5094750;28;20024;-73
2021/05/14 03:56:05;;;;;;;2.80;1.75;;;9.60;99.90;;;;;;5089958;28;20025;-74
2021/05/14 03:58:31;;;;;;;3.10;1.70;;;9.70;99.90;;;;;;5094764;28;20032;-75
2021/05/14 04:00:57;;;;;;;4.28;2.00;;;9.70;99.90;;;;;;5094329;28;20081;-70
2021/05/14 04:03:23;;;;;;;3.85;2.50;;;9.70;99.90;;;;;;5094225;28;20081;-71
2021/05/14 04:05:49;;;;;;;4.13;1.80;;;9.70;99.90;;;;;;5094212;28;20511;-72
2021/05/14 04:08:15;;;;;;;4.55;2.03;;;9.70;99.90;;;;;;5094823;28;20032;-71
2021/05/14 04:16:09;;;;;;;4.22;2.03;;;9.60;99.90;;;;;;5093354;28;20464;-73
2021/05/14 04:18:37;;;;;;;3.03;2.00;;;9.60;99.90;;;;;;5093891;28;20051;-73
2021/05/14 04:21:03;;;;;;;3.72;2.00;;;9.60;99.90;;;;;;5093850;28;20114;-73
2021/05/14 04:23:29;;;;;;;5.90;2.45;;;9.60;99.90;;;;;;5094220;28;20031;-74
2021/05/14 04:25:55;;;;;;;3.63;1.90;;;9.60;99.90;;;;;;5094137;28;20379;-74
2021/05/14 04:28:21;;;;;;;5.43;2.35;;;9.70;99.90;;;;;;5093895;28;20036;-74
2021/05/14 04:30:46;;;;;;;5.65;1.92;;;9.60;99.90;;;;;;5093870;28;20036;-73
2021/05/14 04:33:12;;;;;;;2.05;1.50;;;9.70;99.90;;;;;;5094042;28;20119;-74
2021/05/14 04:35:38;;;;;;;4.70;1.90;;;9.70;99.90;;;;;;5094050;28;20024;-72
2021/05/14 04:38:04;;;;;;;2.58;1.67;;;9.80;99.90;;;;;;5092386;28;20062;-72
2021/05/14 04:40:29;;;;;;;3.53;2.00;;;9.80;99.90;;;;;;5093595;28;20032;-73
2021/05/14 04:43:03;;;;;;;3.70;1.70;;;9.90;99.90;;;;;;5093756;28;20081;-73
2021/05/14 04:45:30;;;;;;;3.80;2.08;;;9.90;99.90;;;;;;5092620;28;20460;-72
2021/05/14 04:47:57;;;;;;;3.03;1.88;;;10.00;99.90;;;;;;5082477;28;20032;-73
2021/05/14 04:50:24;;;;;;;3.78;1.90;;;9.90;99.90;;;;;;5073175;28;20090;-71
2021/05/14 04:53:01;;;;;;;3.78;2.00;;;9.90;99.90;;;;;;5073318;28;20036;-70
2021/05/14 04:55:27;;;;;;;4.53;1.95;;;10.00;99.90;;;;;;5073457;28;20028;-70
2021/05/14 04:57:53;;;;;;;3.08;1.80;;;10.10;99.90;;;;;;5072178;28;20043;-71
2021/05/14 05:00:19;;;;;;;4.00;1.60;;;10.20;99.90;;;;;;5073428;28;20028;-71
2021/05/14 05:02:45;;;;;;;3.28;1.77;;;10.30;99.90;;;;;;5072843;28;20074;-72
2021/05/14 05:05:11;;;;;;;2.97;1.77;;;10.40;99.90;;;;;;5073092;28;20063;-71
2021/05/14 05:07:37;;;;;;;4.55;2.15;;;10.50;99.90;;;;;;5073317;28;20024;-73
2021/05/14 05:10:04;;;;;;;3.50;1.77;;;10.60;99.90;;;;;;5072587;28;20184;-67
2021/05/14 05:12:29;;;;;;;4.13;2.08;;;10.60;99.90;;;;;;5072686;28;20427;-67
2021/05/14 05:14:55;;;;;;;3.47;1.98;;;10.50;99.90;;;;;;5072550;28;20033;-66
2021/05/14 05:17:21;;;;;;;4.45;2.08;;;10.60;99.90;;;;;;5078992;28;20158;-68
2021/05/14 05:19:46;;;;;;;4.57;2.00;;;10.60;99.90;;;;;;5092473;28;20055;-69
2021/05/14 05:22:12;;;;;;;5.03;2.53;;;10.60;99.90;;;;;;5082523;28;20060;-69
2021/05/14 05:24:38;;;;;;;3.00;2.10;;;10.80;99.90;;;;;;5072493;28;20117;-68
2021/05/14 05:27:06;;;;;;;3.42;1.83;;;10.80;99.90;;;;;;5072126;28;20416;-68
2021/05/14 05:29:36;;;;;;;5.75;2.42;;;10.90;99.90;;;;;;5071719;28;20546;-68
2021/05/14 05:32:01;;;;;;;4.00;2.28;;;10.80;99.90;;;;;;5071096;28;20031;-68
2021/05/14 05:34:28;;;;;;;5.13;2.42;;;10.80;99.90;;;;;;5070501;28;20036;-68
2021/05/14 05:36:55;;;;;;;3.97;2.55;;;10.90;99.90;;;;;;5072465;28;20062;-69
2021/05/14 05:39:21;;;;;;;3.40;1.70;;;11.00;99.90;;;;;;5071992;28;20059;-69
2021/05/14 05:41:46;;;;;;;3.97;1.92;;;11.00;99.90;;;;;;5072599;28;20051;-69
2021/05/14 05:44:12;;;;;;;5.43;1.90;;;11.00;99.90;;;;;;5071965;28;20040;-69
2021/05/14 05:46:38;;;;;;;2.83;1.58;;;11.20;99.90;;;;;;5072571;28;20025;-69
2021/05/14 05:49:04;;;;;;;3.40;1.70;;;11.30;99.90;;;;;;5092326;28;20430;-69
2021/05/14 05:51:31;;;;;;;2.78;1.67;;;11.20;99.90;;;;;;5092599;28;20048;-69
2021/05/14 05:53:57;;;;;;;4.65;2.13;;;11.20;99.90;;;;;;5092367;28;20481;-69
2021/05/14 05:56:27;;;;;;;4.75;1.85;;;11.40;99.90;;;;;;5092418;28;20034;-69
2021/05/14 05:58:53;;;;;;;2.92;1.40;;;11.50;99.90;;;;;;5091242;28;20530;-69
2021/05/14 06:01:20;;;;;;;3.33;1.67;;;11.50;99.90;;;;;;5092655;28;20054;-69
2021/05/14 06:03:48;;;;;;;3.50;2.60;;;11.50;99.90;;;;;;5092262;28;20036;-69
2021/05/14 06:06:14;;;;;;;3.42;2.13;;;11.30;99.90;;;;;;5089197;28;20036;-69
2021/05/14 06:08:41;;;;;;;3.72;1.95;;;11.20;99.90;;;;;;5092485;28;20032;-69
2021/05/14 06:11:07;;;;;;;3.65;1.98;;;11.20;99.90;;;;;;5092359;28;20029;-69
2021/05/14 06:13:34;;;;;;;2.20;1.48;;;11.10;99.90;;;;;;5092377;28;20035;-69
2021/05/14 06:16:01;;;;;;;2.33;1.55;;;11.20;99.90;;;;;;5092200;28;20024;-69
2021/05/14 06:18:32;;;;;;;2.75;1.52;;;11.20;99.90;;;;;;5076387;28;20040;-69
2021/05/14 06:20:59;;;;;;;4.32;2.25;;;11.20;99.90;;;;;;5071856;28;20028;-69
2021/05/14 06:23:25;;;;;;;10.20;2.75;;;11.30;99.90;;;;;;5072105;28;20041;-69
2021/05/14 06:25:51;;;;;;;6.38;3.22;;;11.40;99.90;;;;;;5071707;28;20039;-69
2021/05/14 06:28:21;;;;;;;4.65;1.88;;;11.30;99.90;;;;;;5071926;28;20109;-69
2021/05/14 06:30:48;;;;;;;3.28;1.70;;;11.40;99.90;;;;;;5072162;28;20059;-69
2021/05/14 06:33:14;;;;;;;2.95;1.45;;;11.40;99.90;;;;;;5071839;28;20052;-68
2021/05/14 06:35:41;;;;;;;4.75;2.13;;;11.30;99.90;;;;;;5072219;28;20120;-69
2021/05/14 06:38:07;;;;;;;4.32;1.83;;;11.50;99.90;;;;;;5070406;28;20040;-69
2021/05/14 06:40:33;;;;;;;7.07;1.92;;;11.40;99.90;;;;;;5074331;28;20028;-68
2021/05/14 06:42:59;;;;;;;3.67;2.05;;;11.30;99.90;;;;;;5075885;28;20037;-69
2021/05/14 06:45:25;;;;;;;4.97;2.30;;;11.20;99.90;;;;;;5075419;28;20136;-70
2021/05/14 06:47:51;;;;;;;5.28;2.70;;;11.20;99.90;;;;;;5084844;28;20028;-69
2021/05/14 06:50:16;;;;;;;4.97;3.13;;;11.10;99.90;;;;;;5095779;28;20029;-68
2021/05/14 06:52:42;;;;;;;6.72;2.95;;;11.30;99.90;;;;;;5094707;28;20031;-66
2021/05/14 06:55:10;;;;;;;3.97;2.38;;;11.20;99.90;;;;;;5095836;28;20105;-67
2021/05/14 06:57:37;;;;;;;4.28;1.85;;;11.40;99.90;;;;;;5095914;28;20077;-67
2021/05/14 07:00:05;;;;;;;4.68;2.00;;;11.40;99.90;;;;;;5095253;28;20028;-67
2021/05/14 07:02:31;;;;;;;5.13;2.30;;;11.40;99.90;;;;;;5095811;28;20064;-66
2021/05/14 07:04:57;;;;;;;5.07;1.83;;;11.60;99.90;;;;;;5095623;28;20118;-67
2021/05/14 07:07:23;;;;;;;3.38;1.60;;;11.60;99.90;;;;;;5095654;28;20034;-67
2021/05/14 07:09:48;;;;;;;3.33;1.63;;;11.70;99.90;;;;;;5095482;28;20038;-67
2021/05/14 07:12:14;;;;;;;3.53;1.65;;;11.70;99.90;;;;;;5095180;28;20531;-70
2021/05/14 07:14:40;;;;;;;3.08;1.17;;;11.70;99.90;;;;;;5095605;28;20039;-67
2021/05/14 07:17:06;;;;;;;2.80;1.38;;;11.90;99.90;;;;;;5089972;28;20036;-68
2021/05/14 07:19:32;;;;;;;3.97;1.40;;;12.20;99.90;;;;;;5074685;28;20580;-67
2021/05/14 07:21:57;;;;;;;6.57;1.75;;;12.20;99.90;;;;;;5075055;28;20025;-67
2021/05/14 07:24:23;;;;;;;5.13;1.67;;;12.40;99.90;;;;;;5073543;28;20172;-67
2021/05/14 07:26:49;;;;;;;21.50;9.85;;;12.50;99.90;;;;;;5074977;28;20108;-67
2021/05/14 07:29:15;;;;;;;2.70;1.02;;;12.40;99.90;;;;;;5074792;28;20043;-67
2021/05/14 07:31:40;;;;;;;3.38;1.02;;;12.50;99.90;;;;;;5074859;28;20090;-67
2021/05/14 07:34:06;;;;;;;3.33;1.42;;;12.60;99.90;;;;;;5074440;28;20091;-67
2021/05/14 07:36:32;;;;;;;3.70;1.63;;;12.50;99.90;;;;;;5074913;28;20025;-66
2021/05/14 07:38:58;;;;;;;5.70;1.20;;;12.60;99.90;;;;;;5074768;28;20103;-66
2021/05/14 07:41:24;;;;;;;2.80;1.20;;;12.70;99.90;;;;;;5074746;28;20028;-66
2021/05/14 07:43:51;;;;;;;3.40;1.00;;;12.80;99.90;;;;;;5074800;28;20037;-66
2021/05/14 07:46:16;;;;;;;1.67;0.85;;;13.00;99.90;;;;;;5074482;28;20051;-66
2021/05/14 07:48:42;;;;;;;4.18;1.17;;;13.00;99.90;;;;;;5091966;28;20036;-66
2021/05/14 07:51:09;;;;;;;2.67;1.35;;;13.00;99.90;;;;;;5094601;28;20031;-66
2021/05/14 07:53:35;;;;;;;3.30;1.38;;;13.10;99.90;;;;;;5094508;28;20036;-66
2021/05/14 07:56:02;;;;;;;6.85;1.88;;;13.20;99.90;;;;;;5094545;28;20028;-66
2021/05/14 07:58:27;;;;;;;2.15;1.20;;;13.30;99.90;;;;;;5094227;28;20514;-66
2021/05/14 08:00:53;;;;;;;2.45;1.17;;;13.20;99.90;;;;;;5094662;28;20060;-67
2021/05/14 08:03:19;;;;;;;1.67;0.95;;;13.20;99.90;;;;;;5094310;28;20063;-65
2021/05/14 08:05:48;;;;;;;3.97;1.30;;;13.40;99.90;;;;;;5092908;28;20460;-66
2021/05/14 08:08:17;;;;;;;3.30;0.85;;;13.60;99.90;;;;;;5074373;28;20036;-66
2021/05/14 08:10:44;;;;;;;3.38;1.02;;;13.80;99.90;;;;;;5074166;28;20070;-66
2021/05/14 08:13:09;;;;;;;3.33;1.13;;;13.80;99.90;;;;;;5074013;28;20035;-66
2021/05/14 08:15:36;;;;;;;3.13;1.08;;;13.90;99.90;;;;;;5073862;28;20033;-66
2021/05/14 08:18:01;;;;;;;1.92;1.20;;;14.10;99.90;;;;;;5085241;28;20601;-66
2021/05/14 08:20:28;;;;;;;1.42;0.80;;;13.80;99.90;;;;;;5093817;28;20040;-67
2021/05/14 08:22:53;;;;;;;3.50;1.00;;;13.80;99.90;;;;;;5093835;28;20032;-66
2021/05/14 08:25:20;;;;;;;2.72;1.55;;;14.00;99.90;;;;;;5093926;28;20039;-66
2021/05/14 08:27:46;;;;;;;3.05;1.15;;;14.10;99.90;;;;;;5093144;28;20369;-66
2021/05/14 08:30:15;;;;;;;5.25;2.35;;;14.10;99.90;;;;;;5093989;28;20031;-66
2021/05/14 08:32:42;;;;;;;2.10;0.90;;;14.10;99.90;;;;;;5094080;28;20028;-66
2021/05/14 08:35:10;;;;;;;5.05;1.00;;;14.20;99.90;;;;;;5093977;28;20495;-66
2021/05/14 08:37:37;;;;;;;2.00;0.85;;;14.40;99.90;;;;;;5094031;28;20082;-66
2021/05/14 08:40:08;;;;;;;2.65;1.00;;;14.60;99.90;;;;;;5093677;28;20032;-65
2021/05/14 08:42:42;;;;;;;2.40;0.95;;;14.70;99.90;;;;;;5094005;28;20060;-65
2021/05/14 08:45:10;;;;;;;1.33;0.70;;;14.80;99.90;;;;;;5093614;28;20102;-66
2021/05/14 08:47:37;;;;;;;1.50;0.90;;;15.10;99.90;;;;;;5085091;28;20073;-66
2021/05/14 08:50:06;;;;;;;1.58;0.88;;;15.20;99.90;;;;;;5093169;28;20081;-66
2021/05/14 08:52:41;;;;;;;3.08;0.50;;;15.40;99.90;;;;;;5093629;28;20054;-66
2021/05/14 08:55:10;;;;;;;0.70;0.55;;;15.40;99.90;;;;;;5093133;28;20077;-66
2021/05/14 08:57:38;;;;;;;5.40;0.70;;;15.60;99.90;;;;;;5093247;28;20062;-66
2021/05/14 09:00:07;;;;;;;3.08;0.65;;;15.60;99.90;;;;;;5093092;28;20097;-65
2021/05/14 09:02:37;;;;;;;1.77;0.60;;;15.80;99.90;;;;;;5092848;28;20024;-66
2021/05/14 09:05:27;;;;;;;9.77;5.13;;;15.70;99.90;;;;;;5093280;28;20085;-66
2021/05/14 09:07:55;;;;;;;4.10;1.70;;;15.90;99.90;;;;;;5093369;28;20282;-66
2021/05/14 09:10:32;;;;;;;1.50;0.40;;;16.10;99.90;;;;;;5093218;28;20024;-66
2021/05/14 09:13:00;;;;;;;1.45;0.40;;;16.20;99.90;;;;;;5091636;28;20051;-67
2021/05/14 09:15:36;;;;;;;0.98;0.47;;;16.10;99.90;;;;;;5093182;28;20032;-64
2021/05/14 09:18:17;;;;;;;1.38;0.60;;;15.90;99.90;;;;;;5080660;28;20056;-65
2021/05/14 09:20:52;;;;;;;1.70;0.40;;;15.80;99.90;;;;;;5072786;28;20028;-66
2021/05/14 09:23:21;;;;;;;2.95;1.23;;;15.90;99.90;;;;;;5071789;28;20485;-64
2021/05/14 09:25:58;;;;;;;1.55;0.52;;;15.70;99.90;;;;;;5072541;28;20039;-66
2021/05/14 09:28:39;;;;;;;2.70;0.73;;;15.80;99.90;;;;;;5072673;28;20033;-63
2021/05/14 09:31:05;;;;;;;;;;;16.00;99.90;;;;;;5073231;28;20036;-62
2021/05/14 09:33:32;;;;;;;2.63;0.40;;;15.90;99.90;;;;;;5072741;28;19926;-61
2021/05/14 09:36:00;;;;;;;0.95;0.40;;;16.10;99.90;;;;;;5072794;28;20028;-63
2021/05/14 09:38:26;;;;;;;1.92;0.60;;;16.40;99.90;;;;;;5072594;28;20031;-61
2021/05/14 09:40:53;;;;;;;0.55;0.32;;;16.60;99.90;;;;;;5072753;28;20034;-62
2021/05/14 09:43:19;;;;;;;2.15;0.40;;;16.60;99.90;;;;;;5071360;28;20484;-62
2021/05/14 09:45:46;;;;;;;0.82;0.40;;;17.00;99.20;;;;;;5072511;28;20036;-60
2021/05/14 09:48:29;;;;;;;1.88;0.50;;;17.00;98.60;;;;;;5085638;28;20042;-60
2021/05/14 09:50:58;;;;;;;1.95;0.30;;;17.30;98.40;;;;;;5092694;28;20085;-61
2021/05/14 09:53:26;;;;;;;1.08;0.47;;;17.60;97.80;;;;;;5092609;28;20238;-62
2021/05/14 09:56:03;;;;;;;0.50;0.30;;;18.00;97.40;;;;;;5092820;28;20028;-60
2021/05/14 09:58:31;;;;;;;1.90;0.47;;;17.80;95.40;;;;;;5092960;28;20028;-60
2021/05/14 10:00:57;;;;;;;2.22;0.40;;;17.60;95.60;;;;;;5091999;28;20040;-67
2021/05/14 10:03:25;;;;;;;2.47;0.60;;;17.40;95.40;;;;;;5092331;28;20035;-60
2021/05/14 10:05:55;;;;;;;16.98;8.55;;;17.30;95.80;;;;;;5089841;28;20119;-68
2021/05/14 10:08:23;;;;;;;0.85;0.32;;;16.70;96.90;;;;;;5050886;28;20106;-67
2021/05/14 10:10:51;;;;;;;0.88;0.43;;;16.40;97.50;;;;;;5052247;28;20053;-68
2021/05/14 10:13:17;;;;;;;5.97;2.75;;;16.40;99.10;;;;;;5051811;28;20033;-67
2021/05/14 10:15:43;;;;;;;0.73;0.22;;;16.40;99.30;;;;;;5056175;28;20033;-67
2021/05/14 10:18:18;;;;;;;1.13;0.60;;;16.80;98.10;;;;;;5081839;28;20059;-61
2021/05/14 10:20:46;;;;;;;0.57;0.38;;;16.80;99.10;;;;;;5096669;28;20024;-62
2021/05/14 10:23:12;;;;;;;2.13;0.40;;;17.20;98.60;;;;;;5096478;28;20036;-61
2021/05/14 10:25:38;;;;;;;0.70;0.30;;;17.20;99.90;;;;;;5095309;28;20035;-62
2021/05/14 10:28:09;;;;;;;0.60;0.28;;;17.10;98.90;;;;;;5096533;28;20036;-61
2021/05/14 10:30:35;;;;;;;;;;;17.30;99.90;;;;;;5096951;28;20032;-61
2021/05/14 10:33:03;;;;;;;0.90;0.40;;;17.10;98.30;;;;;;5096272;28;19912;-62
2021/05/14 10:35:33;;;;;;;2.35;0.35;;;17.30;98.70;;;;;;5096294;28;20024;-61
2021/05/14 10:38:04;;;;;;;1.83;0.70;;;17.20;99.30;;;;;;5096416;28;20055;-61
2021/05/14 10:40:33;;;;;;;1.35;0.68;;;17.20;97.90;;;;;;5096035;28;20046;-62
2021/05/14 10:43:01;;;;;;;1.63;0.70;;;17.10;98.10;;;;;;5096031;28;20115;-62
2021/05/14 10:45:41;;;;;;;2.90;0.40;;;16.60;99.10;;;;;;5095839;28;20043;-62
2021/05/14 10:51:13;;;;;;;0.75;0.32;;;16.90;99.90;;;;;;5075633;28;20032;-61
2021/05/14 10:53:39;;;;;;;0.95;0.40;;;17.20;98.40;;;;;;5065620;28;20463;-61
2021/05/14 10:56:11;;;;;;;1.70;0.38;;;17.30;97.60;;;;;;5075739;28;20120;-61
2021/05/14 10:59:01;;;;;;;1.27;0.40;;;17.30;97.50;;;;;;5075545;28;20035;-62
2021/05/14 11:01:36;;;;;;;1.67;0.30;;;17.20;97.30;;;;;;5074985;28;20408;-61
2021/05/14 11:04:12;;;;;;;1.73;0.40;;;17.00;99.60;;;;;;5075259;28;20040;-62
2021/05/14 11:06:51;;;;;;;1.30;0.30;;;16.50;99.90;;;;;;5075213;28;20115;-61
2021/05/14 11:09:21;;;;;;;0.50;0.32;;;16.00;99.90;;;;;;5075029;28;20454;-61
2021/05/14 11:12:06;;;;;;;2.53;0.93;;;15.60;99.90;;;;;;5075382;28;20064;-61
2021/05/14 11:14:47;;;;;;;0.75;0.30;;;15.30;99.90;;;;;;5075292;28;20054;-61
2021/05/14 11:17:20;;;;;;;;;;;15.00;99.90;;;;;;5080892;28;20031;-61
2021/05/14 11:19:54;;;;;;;2.65;0.65;;;15.00;99.90;;;;;;5094984;28;19993;-61
2021/05/14 11:22:25;;;;;;;0.40;0.10;;;15.10;99.90;;;;;;5095417;28;20137;-61
2021/05/14 11:25:02;;;;;;;4.30;0.40;;;15.30;99.90;;;;;;5094941;28;20174;-62
2021/05/14 11:27:35;;;;;;;0.60;0.30;;;15.30;99.90;;;;;;5095235;28;20043;-61
2021/05/14 11:30:09;;;;;;;1.05;0.52;;;15.50;99.90;;;;;;5095332;28;20437;-61
2021/05/14 11:32:40;;;;;;;1.38;0.60;;;15.60;99.90;;;;;;5094894;28;20055;-62
2021/05/14 11:35:12;;;;;;;1.98;0.30;;;15.60;99.90;;;;;;5090558;28;20590;-61
2021/05/14 11:37:53;;;;;;;0.40;0.30;;;15.50;99.90;;;;;;5074937;28;20040;-61
2021/05/14 11:40:22;;;;;;;1.13;0.43;;;15.60;99.90;;;;;;5073580;28;20124;-62
2021/05/14 11:42:56;;;;;;;0.98;0.40;;;15.80;99.90;;;;;;5056801;28;20289;-62
2021/05/14 11:45:31;;;;;;;0.52;0.35;;;16.00;99.90;;;;;;5074245;28;20033;-61
2021/05/14 11:48:00;;;;;;;0.50;0.30;;;16.00;99.90;;;;;;5084878;28;20628;-61
2021/05/14 11:50:31;;;;;;;1.98;0.20;;;15.80;99.90;;;;;;5094573;28;20072;-62
2021/05/14 11:53:00;;;;;;;0.50;0.20;;;15.90;99.90;;;;;;5094789;28;20024;-61
2021/05/14 11:55:27;;;;;;;1.98;0.25;;;16.00;99.90;;;;;;5094622;28;20031;-62
2021/05/14 11:57:58;;;;;;;1.38;0.20;;;16.30;99.90;;;;;;5094833;28;20039;-61
2021/05/14 12:00:37;;;;;;;1.27;0.45;;;16.80;99.90;;;;;;5094344;28;20039;-61
2021/05/14 12:03:07;;;;;;;2.72;0.90;;;17.40;97.20;;;;;;5094715;28;20036;-62
2021/05/14 12:05:35;;;;;;;0.35;0.20;;;17.80;98.20;;;;;;5094404;28;20127;-62
2021/05/14 12:08:26;;;;;;;0.28;0.15;;;18.60;96.20;;;;;;5094163;28;20028;-61
2021/05/14 12:10:57;;;;;;;0.30;0.10;;;18.90;94.20;;;;;;5094488;28;20110;-62
2021/05/14 12:13:29;;;;;;;2.65;0.22;;;19.00;93.80;;;;;;5091053;28;20028;-61
2021/05/14 12:16:02;;;;;;;0.30;0.10;;;18.90;93.20;;;;;;5094354;28;20046;-61
2021/05/14 12:18:32;;;;;;;1.98;0.20;;;18.30;93.30;;;;;;5077984;28;20080;-61
2021/05/14 12:21:22;;;;;;;1.50;0.28;;;18.50;93.70;;;;;;5073578;28;20040;-62
2021/05/14 12:23:49;;;;;;;0.40;0.30;;;18.80;94.10;;;;;;5074022;28;20029;-61
2021/05/14 12:26:15;;;;;;;0.50;0.15;;;18.70;92.90;;;;;;5073829;28;20526;-61
2021/05/14 12:28:46;;;;;;;0.98;0.38;;;18.60;90.90;;;;;;5073865;28;20029;-62
2021/05/14 12:31:34;;;;;;;0.20;0.20;;;18.60;92.50;;;;;;5073632;28;20059;-61
2021/05/14 12:34:10;;;;;;;1.38;0.28;;;19.20;91.00;;;;;;5072795;28;20041;-62
2021/05/14 12:36:43;;;;;;;0.40;0.20;;;19.20;90.00;;;;;;5072711;28;20110;-62
2021/05/14 12:39:19;;;;;;;0.10;0.10;;;19.60;86.40;;;;;;5073609;28;20055;-61
2021/05/14 12:42:01;;;;;;;0.63;0.20;;;19.80;88.70;;;;;;5073351;28;20123;-62
2021/05/14 12:44:32;;;;;;;0.98;0.55;;;20.10;86.30;;;;;;5072709;28;20500;-61
2021/05/14 12:47:20;;;;;;;0.40;0.20;;;19.60;84.60;;;;;;5073287;28;20420;-62
2021/05/14 12:50:05;;;;;;;0.20;0.10;;;19.50;85.40;;;;;;5073243;28;20483;-60
2021/05/14 12:52:35;;;;;;;1.05;0.30;;;19.40;84.60;;;;;;5073097;28;20043;-61
2021/05/14 12:55:03;;;;;;;0.35;0.17;;;19.10;85.70;;;;;;5072936;28;20488;-59
2021/05/14 12:57:55;;;;;;;1.63;0.17;;;19.10;85.90;;;;;;5073132;28;20119;-60
2021/05/14 13:00:36;;;;;;;1.65;0.30;;;19.00;86.30;;;;;;5064942;28;20537;-60
2021/05/14 13:03:10;;;;;;;2.00;0.20;;;18.90;89.80;;;;;;5073037;28;20393;-60
2021/05/14 13:05:43;;;;;;;1.40;0.40;;;18.60;91.10;;;;;;5071574;28;20776;-60
2021/05/14 13:08:12;;;;;;;3.10;0.35;;;18.10;92.50;;;;;;5073105;28;20033;-61